Detall de PIREP

Printer-friendly versionPDF version

[2013/01/24 11:43:00]
Flight IATA:CT0001
Pilot Number:042
Company ICAO:CAT
Aircraft Type:C750/F
PAX:2
Departing Airport: LEIB
Destination Airport: LEGE
Alternate Airport:LEBL
Online: VATSIM
Route:GODOX A293 RES A29 REBUL H110 MAMUK
Flight Level:F180
No Slew and time accel
No pause
Crash detect
Detect pilot in Cockpit between each 30 and 45 minutes
11:43 Zero fuel Weight: 22921 Lbs, Fuel Weight: 12978 Lbs
11:43 VATSIM:LEIB 241130Z 29017G27KT 9999 FEW025 13/05 Q1006 NOSIG
11:43 VATSIM:LEGE 241130Z 04008KT 9999 FEW030 08/01 Q1003
11:43 VOICE CATALONIAN
11:54 Parking Brakes off
12:00 Take-off
12:00 Take off Weight: 35736 Lbs
12:00 Wind: 212º @ 013 Knots Heading: 239º
12:00 POS N38º 52´ 17´´ E001º 22´ 11´´
12:00 Gear Up: 158 Knots
12:00 Flaps:4 at 158 Knots
12:01 Flaps:3 at 206 Knots
12:01 Flaps:2 at 219 Knots
12:11 TOC
12:11 Fuel Weight: 12351 Lb
12:13 TOD
12:13 Fuel Weight: 12280 Lb
12:13 TOC
12:13 Fuel Weight: 12279 Lb
12:14 TOD
12:14 Fuel Weight: 12248 Lb
12:14 TOC
12:14 Fuel Weight: 12247 Lb
12:15 Wind:312º@040 Knots Heading: 348º Ground Speed: 342 Knots Altitude 17769 ft
12:15 TOD
12:15 Fuel Weight: 12218 Lb
12:15 TOC
12:15 Fuel Weight: 12217 Lb
12:16 TOD
12:16 Fuel Weight: 12204 Lb
12:16 TOC
12:16 Fuel Weight: 12202 Lb
12:16 TOD
12:16 Fuel Weight: 12181 Lb
12:16 TOC
12:16 Fuel Weight: 12180 Lb
12:17 TOD
12:17 Fuel Weight: 12157 Lb
12:17 TOC
12:17 Fuel Weight: 12154 Lb
12:18 TOD
12:18 Fuel Weight: 12142 Lb
12:18 TOC
12:18 Fuel Weight: 12140 Lb
12:19 TOD
12:19 Fuel Weight: 12104 Lb
12:19 TOC
12:19 Fuel Weight: 12101 Lb
12:20 TOD
12:20 Fuel Weight: 12067 Lb
12:20 TOC
12:20 Fuel Weight: 12065 Lb
12:20 TOD
12:20 Fuel Weight: 12049 Lb
12:20 TOC
12:20 Fuel Weight: 12047 Lb
12:22 TOD
12:22 FuelWeight: 11979 Lb
12:22 TOC
12:22 Fuel Weight: 11978 Lb
12:23 TOD
12:23 Fuel Weight: 11960 Lb
12:23 TOC
12:23 Fuel Weight: 11958 Lb
12:24 TOD
12:24 Fuel Weight: 11927 Lb
12:24 TOC
12:24 Fuel Weight: 11925 Lb
12:25 TOD
12:25 Fuel Weight: 11876 Lb
12:25 TOC
12:25 Fuel Weight: 11876 Lb
12:27 TOD
12:27 Fuel Weight: 11841 Lb
12:27 TOC
12:27 Fuel Weight: 11840 Lb
12:28 TOD
12:28 Fuel Weight: 11807 Lb
12:28 TOC
12:28 Fuel Weight: 11805 Lb
12:29 TOD
12:29 Fuel Weight: 11773 Lb
12:29 TOC
12:29 Fuel Weight: 11772 Lb
12:30 Wind:311º@044 Knots Heading: 349º Ground Speed: 365 Knots Altitude 17700 ft
12:30 TOD
12:30 Fuel Weight: 11741 Lb
12:30 TOC
12:30 Fuel Weight: 11737 Lb
12:31 TOD
12:31 Fuel Weight: 11703 Lb
12:31 TOC
12:31 Fuel Weight: 11701 Lb
12:32 TOD
12:32 Fuel Weight: 11668 Lb
12:32 TOC
12:32 Fuel Weight: 11665 Lb
12:33 TOD
12:33 Fuel Weight: 11634 Lb
12:33 TOC
12:33 Fuel Weight: 11632 Lb
12:34 TOD
12:34 Fuel Weight: 11601 Lb
12:34 TOC
12:34 Fuel Weight: 11600 Lb
12:35 TOD
12:35 Fuel Weight: 11570 Lb
12:35 TOC
12:35 Fuel Weight: 11569 Lb
12:36 TOD
12:36 Fuel Weight: 11553 Lb
12:36 TOC
12:36 Fuel Weight: 11554 Lb
12:38 TOD
12:38 Fuel Weight: 11490 Lb
12:38 TOC
12:38 Fuel Weight: 11488 Lb
12:39 TOD
12:39 Fuel Weight: 11462 Lb
12:39 TOC
12:39 Fuel Weight: 11460 Lb
12:40 TOD
12:40 Fuel Weight: 11433 Lb
12:40 TOC
12:40 Fuel Weight: 11431 Lb
12:41 TOD
12:41 Fuel Weight: 11404 Lb
12:41 TOC
12:41 Fuel Weight: 11402 Lb
12:41 TOD
12:41 Fuel Weight: 11400 Lb
12:45 Wind:330º@032 Knots Heading: 074º Ground Speed: 313 Knots Altitude 11981 ft
12:47 Flaps:3 at 191 Knots
12:56 Gear Down: 157 Knots
12:56 Flaps:4 at 157 Knots
12:56 Flaps:5 at 153 Knots
13:00 Wind:202º@010 Knots Heading: 196º Ground Speed: 119 Knots Altitude 492 ft
13:00 TouchDown:Rate -383 ft/min Speed: 125 Knots
13:00 VATSIM:LEGE 241230Z 06007KT 020V090 9999 SCT030 08/01 Q1003
13:00 Land
13:00 Wind:202º@010 Knots
13:00 Heading: 194º
13:00 Flight Duration: 01:00
13:00 Landing Weight: 34043 Lbs
13:00 POS N41º 54´ 08´´ E002º 45´ 39´´
13:03 Parking brakes on
13:03 Block to Block Duration: 01:09
13:03 Final Fuel: 11080 Lbls
13:03 Spent Fuel: 1898 Lbls
13:03 Flight Length: 305 NM
13:03 TOD Land Length: 71 NM

Exportar CSV

Powered by Drupal - Modified by Danger4k